Time;durP1;ratioP1;P1;durP2;ratioP2;P2;SDS_P1;SDS_P2;PMS_P1;PMS_P2;Temp;Humidity;BMP_temperature;BMP_pressure;BME280_temperature;BME280_humidity;BME280_pressure;Samples;Min_cycle;Max_cycle;Signal;HPM_P1;HPM_P2
2021/06/18 00:00:17;;;;;;;;;;;24.80;44.20;;;;;;5067431;28;19931;-80
2021/06/18 00:02:43;;;;;;;;;;;24.80;44.20;;;;;;5081351;28;19909;-78
2021/06/18 00:05:10;;;;;;;;;;;24.70;44.10;;;;;;5081706;28;19905;-81
2021/06/18 00:07:35;;;;;;;;;;;24.70;44.10;;;;;;5088417;28;19904;-80
2021/06/18 00:10:01;;;;;;;;;;;24.60;44.30;;;;;;5082014;28;19904;-78
2021/06/18 00:12:26;;;;;;;;;;;24.60;44.20;;;;;;5062984;28;19920;-77
2021/06/18 00:14:52;;;;;;;;;;;24.60;44.10;;;;;;5081054;28;19905;-77
2021/06/18 00:17:17;;;;;;;;;;;24.60;44.40;;;;;;5081452;28;19912;-79
2021/06/18 00:19:43;;;;;;;;;;;24.50;44.10;;;;;;5081143;28;19911;-79
2021/06/18 00:22:09;;;;;;;;;;;24.50;43.70;;;;;;5081672;28;19997;-79
2021/06/18 00:24:34;;;;;;;;;;;24.50;44.40;;;;;;5080603;28;19916;-78
2021/06/18 00:27:00;;;;;;;;;;;24.50;44.40;;;;;;5080735;28;19955;-79
2021/06/18 00:29:25;;;;;;;;;;;24.40;44.10;;;;;;5080722;28;19904;-78
2021/06/18 00:31:51;;;;;;;;;;;24.40;44.20;;;;;;5063265;28;19908;-79
2021/06/18 00:34:16;;;;;;;;;;;24.40;44.20;;;;;;5087217;28;19938;-78
2021/06/18 00:36:41;;;;;;;;;;;24.40;44.40;;;;;;5067211;28;19904;-79
2021/06/18 00:39:07;;;;;;;;;;;24.30;44.80;;;;;;5070638;28;19908;-77
2021/06/18 00:41:32;;;;;;;;;;;24.30;45.00;;;;;;5069909;28;19936;-75
2021/06/18 00:43:58;;;;;;;;;;;24.30;44.70;;;;;;5087256;28;19904;-78
2021/06/18 00:46:24;;;;;;;;;;;24.20;44.90;;;;;;5089220;28;19893;-76
2021/06/18 00:48:50;;;;;;;;;;;24.20;45.00;;;;;;5070802;28;19908;-79
2021/06/18 00:51:15;;;;;;;;;;;24.20;45.50;;;;;;5085809;28;19912;-79
2021/06/18 00:53:41;;;;;;;;;;;24.10;45.30;;;;;;5091068;28;19940;-76
2021/06/18 00:56:07;;;;;;;;;;;24.10;45.40;;;;;;5090290;28;19909;-78
2021/06/18 00:58:32;;;;;;;;;;;24.10;45.70;;;;;;5089705;28;19989;-78
2021/06/18 01:00:58;;;;;;;;;;;24.00;45.80;;;;;;5087421;28;19911;-76
2021/06/18 01:03:24;;;;;;;;;;;24.00;46.10;;;;;;5088434;28;19905;-76
2021/06/18 01:05:51;;;;;;;;;;;24.00;46.50;;;;;;5070857;28;19908;-77
2021/06/18 01:08:17;;;;;;;;;;;23.90;47.10;;;;;;5088219;28;19908;-77
2021/06/18 01:13:16;;;;;;;13.45;8.70;;;23.80;47.30;;;;;;5162387;27;20387;-77
2021/06/18 01:16:29;;;;;;;13.55;8.85;;;23.80;48.20;;;;;;5127507;28;20385;-76
2021/06/18 01:19:05;;;;;;;15.13;9.38;;;23.80;48.60;;;;;;5058941;28;20444;-79
2021/06/18 01:21:38;;;;;;;14.05;9.10;;;23.90;47.70;;;;;;5037977;28;20395;-81
2021/06/18 01:24:18;;;;;;;14.27;9.00;;;23.90;47.60;;;;;;5077894;28;20389;-77
2021/06/18 01:27:10;;;;;;;17.88;9.00;;;23.90;47.90;;;;;;5105889;22;20423;-72
2021/06/18 01:29:40;;;;;;;13.70;8.85;;;23.90;47.90;;;;;;5088149;28;20448;-72
2021/06/18 01:32:11;;;;;;;15.57;9.30;;;23.90;48.00;;;;;;5087827;28;20485;-72
2021/06/18 01:34:37;;;;;;;15.48;9.07;;;23.90;47.80;;;;;;5087686;28;20426;-73
2021/06/18 01:37:08;;;;;;;12.95;8.98;;;23.80;47.70;;;;;;5087855;28;20379;-73
2021/06/18 01:39:35;;;;;;;14.02;9.40;;;23.80;47.80;;;;;;5088212;28;20371;-72
2021/06/18 01:42:04;;;;;;;16.58;9.00;;;23.70;48.50;;;;;;5087956;28;20449;-73
2021/06/18 01:44:30;;;;;;;11.85;9.40;;;23.70;48.60;;;;;;5087687;28;20417;-72
2021/06/18 01:46:59;;;;;;;16.45;9.10;;;23.60;48.80;;;;;;5088161;28;20522;-73
2021/06/18 01:49:25;;;;;;;13.75;9.88;;;23.50;49.90;;;;;;5087886;28;20470;-73
2021/06/18 01:51:52;;;;;;;11.48;8.88;;;23.50;49.70;;;;;;5086905;28;20399;-73
2021/06/18 01:54:26;;;;;;;11.63;8.50;;;23.50;49.80;;;;;;5087502;28;20421;-74
2021/06/18 01:56:53;;;;;;;12.90;8.85;;;23.40;50.60;;;;;;5087726;28;20383;-74
2021/06/18 01:59:21;;;;;;;13.43;9.18;;;23.50;50.20;;;;;;5087913;28;20398;-72
2021/06/18 02:01:49;;;;;;;11.52;9.50;;;23.50;50.30;;;;;;5087975;28;20379;-73
2021/06/18 02:04:16;;;;;;;15.93;9.90;;;23.40;51.10;;;;;;5087074;28;20399;-73
2021/06/18 02:06:43;;;;;;;12.95;9.50;;;23.50;50.70;;;;;;5087476;28;20390;-72
2021/06/18 02:09:12;;;;;;;18.13;9.57;;;23.30;52.80;;;;;;5087194;28;20520;-73
2021/06/18 02:11:40;;;;;;;11.82;9.63;;;23.40;52.10;;;;;;5087105;28;20399;-71
2021/06/18 02:14:09;;;;;;;15.02;9.73;;;23.40;51.70;;;;;;5086479;28;20395;-72
2021/06/18 02:16:38;;;;;;;15.55;10.00;;;23.50;51.50;;;;;;5086788;28;20456;-72
2021/06/18 02:19:04;;;;;;;15.83;9.90;;;23.40;51.90;;;;;;5086852;28;20466;-73
2021/06/18 02:21:30;;;;;;;13.18;10.50;;;23.30;52.80;;;;;;5086898;28;20387;-69
2021/06/18 02:23:58;;;;;;;16.07;10.87;;;23.20;54.50;;;;;;5076033;28;20391;-69
2021/06/18 02:26:25;;;;;;;16.10;11.35;;;23.30;54.80;;;;;;5072700;28;20395;-71
2021/06/18 02:28:52;;;;;;;16.05;11.15;;;23.20;55.20;;;;;;5073226;28;20387;-69
2021/06/18 02:31:21;;;;;;;14.88;10.70;;;23.30;54.60;;;;;;5072930;28;20415;-69
2021/06/18 02:33:48;;;;;;;15.82;11.63;;;23.40;54.20;;;;;;5072497;28;20474;-69
2021/06/18 02:36:15;;;;;;;16.20;10.90;;;23.30;55.30;;;;;;5072673;28;20418;-69
2021/06/18 02:38:41;;;;;;;16.52;11.35;;;23.10;57.10;;;;;;5072995;28;20383;-69
2021/06/18 02:41:06;;;;;;;15.40;11.20;;;23.20;57.30;;;;;;5073067;28;20830;-70
2021/06/18 02:43:32;;;;;;;16.20;11.13;;;23.40;56.00;;;;;;5073350;28;20395;-70
2021/06/18 02:45:57;;;;;;;16.10;11.85;;;23.40;55.50;;;;;;5073041;28;20390;-70
2021/06/18 02:48:38;;;;;;;15.70;11.57;;;23.30;56.50;;;;;;5073231;28;20426;-71
2021/06/18 02:51:17;;;;;;;13.63;10.93;;;23.30;56.50;;;;;;5072996;28;20404;-71
2021/06/18 02:53:57;;;;;;;13.80;12.07;;;23.50;55.70;;;;;;5072570;28;20391;-70
2021/06/18 02:56:27;;;;;;;16.70;12.55;;;23.50;55.80;;;;;;5072686;28;20457;-70
2021/06/18 02:59:13;;;;;;;17.05;12.40;;;23.40;56.30;;;;;;5072754;28;20919;-70
2021/06/18 03:01:40;;;;;;;16.63;12.88;;;23.10;58.80;;;;;;5072392;28;20391;-70
2021/06/18 03:04:09;;;;;;;33.75;12.82;;;23.00;60.80;;;;;;5072277;28;20471;-70
2021/06/18 03:06:40;;;;;;;17.02;12.60;;;22.90;61.30;;;;;;5072576;28;20387;-70
2021/06/18 03:09:07;;;;;;;18.07;11.73;;;22.80;61.70;;;;;;5072399;28;20748;-70
2021/06/18 03:11:38;;;;;;;14.30;12.03;;;22.80;61.90;;;;;;5072065;28;20810;-70
2021/06/18 03:14:09;;;;;;;16.85;11.40;;;22.80;62.40;;;;;;5071980;28;20384;-69
2021/06/18 03:16:36;;;;;;;15.20;11.15;;;23.10;61.30;;;;;;5072293;28;20470;-70
2021/06/18 03:19:06;;;;;;;17.53;11.40;;;23.20;59.60;;;;;;5072368;28;20733;-69
2021/06/18 03:21:35;;;;;;;17.05;12.45;;;23.20;59.00;;;;;;5071931;28;20387;-70
2021/06/18 03:24:01;;;;;;;23.07;13.43;;;23.30;58.00;;;;;;5071786;28;20391;-70
2021/06/18 03:26:28;;;;;;;19.55;13.00;;;23.20;59.60;;;;;;5071848;28;20411;-70
2021/06/18 03:28:55;;;;;;;16.30;12.07;;;23.10;60.20;;;;;;5072024;28;20513;-70
2021/06/18 03:31:23;;;;;;;13.40;11.40;;;23.00;62.30;;;;;;5072069;28;20898;-71
2021/06/18 03:33:50;;;;;;;14.05;12.50;;;22.90;63.00;;;;;;5072649;28;20380;-70
2021/06/18 03:36:21;;;;;;;20.88;12.75;;;22.90;63.00;;;;;;5070916;28;20399;-70
2021/06/18 03:38:47;;;;;;;30.60;24.85;;;23.00;63.70;;;;;;5072389;28;20372;-71
2021/06/18 03:41:14;;;;;;;19.70;12.30;;;23.00;62.70;;;;;;5072038;28;20376;-70
2021/06/18 03:43:40;;;;;;;15.30;11.60;;;23.00;62.50;;;;;;5071940;28;20445;-70
2021/06/18 03:46:08;;;;;;;14.75;10.35;;;23.20;60.60;;;;;;5071701;28;20392;-70
2021/06/18 03:48:36;;;;;;;19.40;15.93;;;23.40;58.50;;;;;;5071989;28;20392;-70
2021/06/18 03:51:03;;;;;;;13.25;10.73;;;23.60;56.60;;;;;;5072159;28;20392;-70
2021/06/18 03:53:29;;;;;;;17.60;11.15;;;23.50;57.50;;;;;;5071680;28;20410;-70
2021/06/18 03:55:55;;;;;;;17.75;13.63;;;23.40;57.90;;;;;;5071660;28;20411;-69
2021/06/18 03:58:22;;;;;;;18.93;13.77;;;23.40;58.40;;;;;;5071691;28;20411;-71
2021/06/18 04:00:51;;;;;;;18.63;12.02;;;23.40;59.10;;;;;;5071373;28;20730;-69
2021/06/18 04:03:20;;;;;;;16.63;12.25;;;23.40;59.20;;;;;;5071233;28;20390;-69
2021/06/18 04:05:48;;;;;;;14.00;12.53;;;23.50;59.20;;;;;;5071224;28;20380;-72
2021/06/18 04:08:15;;;;;;;16.80;11.23;;;23.50;59.40;;;;;;5071256;28;20380;-70
2021/06/18 04:10:43;;;;;;;23.73;17.55;;;23.60;58.50;;;;;;5070653;28;20392;-70
2021/06/18 04:13:09;;;;;;;23.13;16.75;;;23.70;58.30;;;;;;5065105;28;20431;-73
2021/06/18 04:15:35;;;;;;;18.73;15.53;;;23.70;58.00;;;;;;5066724;28;20812;-71
2021/06/18 04:18:01;;;;;;;14.00;11.47;;;23.70;58.00;;;;;;5070397;28;20431;-75
2021/06/18 04:20:28;;;;;;;17.17;12.90;;;23.80;57.10;;;;;;5070028;28;20440;-74
2021/06/18 04:22:54;;;;;;;23.50;18.08;;;23.90;56.70;;;;;;5067197;28;20761;-74
2021/06/18 04:25:20;;;;;;;25.92;17.30;;;23.90;56.20;;;;;;5069889;28;20399;-72
2021/06/18 04:27:46;;;;;;;17.33;12.17;;;23.90;56.10;;;;;;5068629;28;20417;-73
2021/06/18 04:30:14;;;;;;;30.60;24.77;;;24.10;55.70;;;;;;5070108;28;20860;-75
2021/06/18 04:32:40;;;;;;;25.98;19.55;;;24.10;55.70;;;;;;5069838;28;20413;-72
2021/06/18 04:35:08;;;;;;;19.83;15.27;;;24.10;56.00;;;;;;5078229;28;20399;-72
2021/06/18 04:37:34;;;;;;;19.75;15.50;;;24.20;55.60;;;;;;5069165;28;20388;-73
2021/06/18 04:40:00;;;;;;;23.65;13.68;;;24.30;55.30;;;;;;5071092;28;20388;-75
2021/06/18 04:42:26;;;;;;;37.85;24.17;;;24.50;54.80;;;;;;5071003;28;20801;-73
2021/06/18 04:44:52;;;;;;;31.93;21.50;;;24.50;54.60;;;;;;5055897;28;20929;-71
2021/06/18 04:47:19;;;;;;;26.47;17.93;;;24.50;55.00;;;;;;5065823;28;20427;-71
2021/06/18 04:49:48;;;;;;;18.30;14.30;;;24.60;55.10;;;;;;5051536;28;20765;-71
2021/06/18 04:52:14;;;;;;;23.92;14.57;;;24.60;55.50;;;;;;5052267;28;20739;-71
2021/06/18 04:54:39;;;;;;;27.60;15.48;;;24.50;55.90;;;;;;5057052;28;20744;-71
2021/06/18 04:57:05;;;;;;;18.80;15.70;;;24.60;55.90;;;;;;5071087;28;20434;-73
2021/06/18 04:59:37;;;;;;;19.47;14.70;;;24.60;55.90;;;;;;5070709;28;20396;-71
2021/06/18 05:02:03;;;;;;;23.13;16.13;;;24.80;54.90;;;;;;5070171;28;20434;-72
2021/06/18 05:04:28;;;;;;;25.67;16.07;;;24.90;54.20;;;;;;5069755;28;20756;-72
2021/06/18 05:06:54;;;;;;;27.43;18.30;;;24.90;54.00;;;;;;5068897;28;20421;-72
2021/06/18 05:09:19;;;;;;;23.50;17.90;;;25.00;53.20;;;;;;5071598;28;20427;-73
2021/06/18 05:11:45;;;;;;;22.38;16.00;;;25.10;52.40;;;;;;5051638;28;20406;-72
2021/06/18 05:14:10;;;;;;;26.90;16.73;;;25.20;51.90;;;;;;5069189;28;20401;-72
2021/06/18 05:16:38;;;;;;;26.70;17.25;;;25.20;51.80;;;;;;5070738;28;20395;-73
2021/06/18 05:19:08;;;;;;;27.45;16.80;;;25.30;51.40;;;;;;5069590;28;20399;-73
2021/06/18 05:21:34;;;;;;;64.95;27.60;;;25.40;51.00;;;;;;5070103;28;20905;-73
2021/06/18 05:24:00;;;;;;;29.15;20.55;;;25.50;50.60;;;;;;5069698;28;20399;-73
2021/06/18 05:26:29;;;;;;;26.23;16.05;;;25.60;49.60;;;;;;5068873;28;20875;-71
2021/06/18 05:28:54;;;;;;;23.15;17.35;;;25.60;49.40;;;;;;5069224;28;20764;-71
2021/06/18 05:31:20;;;;;;;23.60;18.73;;;25.80;48.10;;;;;;5069703;28;20408;-72
2021/06/18 05:33:45;;;;;;;18.77;16.30;;;25.70;48.30;;;;;;5069700;28;20403;-72
2021/06/18 05:36:11;;;;;;;31.02;16.70;;;25.70;48.60;;;;;;5068238;28;20429;-72
2021/06/18 05:38:36;;;;;;;25.20;14.93;;;25.70;47.10;;;;;;5069592;28;20426;-72
2021/06/18 05:41:02;;;;;;;20.73;15.30;;;25.70;46.80;;;;;;5069022;28;20398;-70
2021/06/18 05:43:28;;;;;;;23.10;15.67;;;25.80;47.60;;;;;;5069783;28;20376;-70
2021/06/18 05:45:53;;;;;;;21.08;15.00;;;25.80;46.10;;;;;;5069911;28;20752;-70
2021/06/18 05:48:19;;;;;;;21.10;15.13;;;26.00;45.30;;;;;;5069414;28;20798;-71
2021/06/18 05:50:45;;;;;;;21.45;14.20;;;26.00;44.70;;;;;;5069622;28;20403;-71
2021/06/18 05:53:10;;;;;;;20.30;15.20;;;26.20;43.70;;;;;;5069215;28;20411;-71
2021/06/18 05:55:36;;;;;;;22.53;15.30;;;26.00;43.50;;;;;;5068946;28;20487;-71
2021/06/18 05:58:01;;;;;;;22.80;15.50;;;26.20;43.60;;;;;;5069960;28;20399;-72
2021/06/18 06:00:27;;;;;;;22.45;15.20;;;26.40;41.80;;;;;;5073096;28;20391;-72
2021/06/18 06:02:53;;;;;;;29.40;16.40;;;26.40;42.20;;;;;;5072740;28;20386;-71
2021/06/18 06:05:19;;;;;;;23.83;15.90;;;26.30;42.50;;;;;;5072854;28;20395;-72
2021/06/18 06:07:46;;;;;;;20.97;15.70;;;26.30;42.20;;;;;;5072171;28;20879;-71
2021/06/18 06:10:13;;;;;;;19.58;15.45;;;26.30;42.60;;;;;;5072387;28;20395;-71
2021/06/18 06:12:39;;;;;;;22.85;15.85;;;26.30;42.10;;;;;;5068936;28;20883;-71
2021/06/18 06:15:05;;;;;;;21.60;16.10;;;26.70;39.60;;;;;;5072255;28;20491;-70
2021/06/18 06:17:31;;;;;;;22.05;17.08;;;26.60;40.20;;;;;;5072628;28;20407;-71
2021/06/18 06:19:57;;;;;;;24.50;17.70;;;26.60;39.20;;;;;;5071674;28;20450;-71
2021/06/18 06:22:22;;;;;;;24.83;17.70;;;26.90;37.40;;;;;;5071506;28;20392;-71
2021/06/18 06:24:48;;;;;;;26.90;18.00;;;26.90;36.90;;;;;;5072188;28;20394;-72
2021/06/18 06:27:14;;;;;;;27.08;17.00;;;26.70;37.80;;;;;;5071748;28;20465;-71
2021/06/18 06:29:39;;;;;;;23.00;16.63;;;26.60;39.10;;;;;;5072460;28;20387;-71
2021/06/18 06:32:05;;;;;;;25.30;18.20;;;26.70;38.90;;;;;;5072702;28;20412;-71
2021/06/18 06:34:31;;;;;;;28.05;19.27;;;26.80;37.90;;;;;;5071815;28;20479;-71
2021/06/18 06:36:58;;;;;;;25.40;18.60;;;26.80;38.00;;;;;;5072199;28;20486;-72
2021/06/18 06:39:23;;;;;;;21.85;17.45;;;26.80;37.80;;;;;;5072759;28;20392;-72
2021/06/18 06:41:49;;;;;;;28.00;17.75;;;27.00;37.40;;;;;;5072456;28;20402;-71
2021/06/18 06:44:15;;;;;;;26.40;18.30;;;27.10;38.60;;;;;;5071887;28;20392;-72
2021/06/18 06:46:40;;;;;;;26.15;19.10;;;27.10;38.50;;;;;;5072449;28;20388;-71
2021/06/18 06:49:06;;;;;;;24.70;19.10;;;26.90;37.60;;;;;;5073444;28;20396;-72
2021/06/18 06:51:31;;;;;;;24.55;19.80;;;27.10;38.10;;;;;;5072459;28;20450;-72
2021/06/18 06:53:57;;;;;;;28.60;19.03;;;27.10;37.80;;;;;;5071301;28;20428;-72
2021/06/18 06:56:22;;;;;;;24.30;18.73;;;27.20;37.70;;;;;;5072135;28;20391;-71
2021/06/18 06:58:48;;;;;;;28.63;20.27;;;27.20;37.50;;;;;;5071567;28;20395;-72
2021/06/18 07:01:14;;;;;;;24.97;19.77;;;27.30;36.80;;;;;;5063531;28;20437;-72
2021/06/18 07:03:40;;;;;;;25.80;19.75;;;27.20;36.50;;;;;;5071591;28;20515;-73
2021/06/18 07:06:07;;;;;;;24.58;18.30;;;27.10;36.80;;;;;;5071855;28;20396;-73
2021/06/18 07:08:33;;;;;;;22.98;18.30;;;27.20;35.80;;;;;;5072181;28;20399;-73
2021/06/18 07:10:58;;;;;;;33.70;18.10;;;27.60;34.80;;;;;;5072325;28;20743;-73
2021/06/18 07:13:24;;;;;;;24.05;17.13;;;27.80;33.60;;;;;;5071766;28;20391;-73
2021/06/18 07:15:51;;;;;;;25.43;17.47;;;27.70;33.40;;;;;;5071532;28;20407;-73
2021/06/18 07:18:17;;;;;;;27.47;18.00;;;27.70;33.60;;;;;;5071481;28;20460;-73
2021/06/18 07:20:43;;;;;;;23.90;18.73;;;28.10;34.30;;;;;;5087222;28;20446;-74
2021/06/18 07:23:09;;;;;;;28.40;20.35;;;28.20;32.60;;;;;;5071098;28;20396;-75
2021/06/18 07:25:36;;;;;;;27.00;18.13;;;28.10;33.10;;;;;;5070438;28;20395;-74
2021/06/18 07:28:06;;;;;;;27.40;18.45;;;28.60;31.90;;;;;;5072229;28;20452;-74
2021/06/18 07:30:33;;;;;;;22.70;18.52;;;29.00;28.60;;;;;;5071792;28;20427;-72
2021/06/18 07:32:58;;;;;;;28.65;18.98;;;29.00;29.60;;;;;;5070778;28;20415;-73
2021/06/18 07:35:24;;;;;;;29.03;18.80;;;29.10;28.60;;;;;;5072075;28;20532;-73
2021/06/18 07:37:50;;;;;;;24.95;18.58;;;29.30;27.90;;;;;;5073587;28;20814;-73
2021/06/18 07:40:17;;;;;;;23.20;17.90;;;29.50;26.20;;;;;;5073441;28;20467;-73
2021/06/18 07:42:43;;;;;;;25.00;17.83;;;29.20;27.50;;;;;;5072017;28;20394;-73
2021/06/18 07:45:10;;;;;;;27.20;18.17;;;29.50;26.50;;;;;;5071939;28;20398;-73
2021/06/18 07:47:35;;;;;;;27.80;18.08;;;29.60;25.00;;;;;;5071775;28;20475;-74
2021/06/18 07:50:01;;;;;;;28.53;17.77;;;29.50;25.40;;;;;;5071351;28;20487;-74
2021/06/18 07:52:27;;;;;;;23.05;16.52;;;29.60;24.70;;;;;;5071317;28;20408;-74
2021/06/18 07:54:56;;;;;;;25.52;16.55;;;29.60;24.40;;;;;;5071465;28;20387;-74
2021/06/18 07:57:21;;;;;;;26.48;16.65;;;29.50;25.10;;;;;;5072950;28;20459;-73
2021/06/18 07:59:47;;;;;;;25.00;16.87;;;29.80;24.10;;;;;;5073020;28;20563;-74
2021/06/18 08:02:12;;;;;;;22.60;16.13;;;29.90;24.40;;;;;;5072506;28;20819;-74
2021/06/18 08:04:38;;;;;;;23.97;18.30;;;29.90;24.80;;;;;;5072852;28;20400;-73
2021/06/18 08:07:03;;;;;;;23.53;15.93;;;29.80;25.10;;;;;;5072488;28;20475;-73
2021/06/18 08:09:29;;;;;;;24.52;15.93;;;30.10;25.80;;;;;;5073156;28;20403;-73
2021/06/18 08:11:54;;;;;;;18.27;15.00;;;30.40;23.60;;;;;;5071660;28;20469;-74
2021/06/18 08:14:20;;;;;;;20.67;16.07;;;30.50;22.90;;;;;;5070783;28;20879;-74
2021/06/18 08:16:46;;;;;;;20.58;15.50;;;30.60;22.20;;;;;;5069689;28;20830;-73
2021/06/18 08:19:11;;;;;;;19.47;13.37;;;30.80;22.10;;;;;;5069662;28;20430;-73
2021/06/18 08:21:37;;;;;;;20.90;13.20;;;30.70;19.90;;;;;;5070464;28;20756;-73
2021/06/18 08:24:03;;;;;;;21.23;14.05;;;30.70;20.50;;;;;;5070231;28;20395;-74
2021/06/18 08:26:28;;;;;;;23.73;14.80;;;30.50;20.10;;;;;;5069191;28;20460;-73
2021/06/18 08:28:54;;;;;;;19.38;14.15;;;30.30;19.90;;;;;;5070281;28;20400;-75
2021/06/18 08:31:20;;;;;;;20.10;13.90;;;30.10;20.40;;;;;;5070644;28;20410;-74
2021/06/18 08:33:46;;;;;;;22.13;13.20;;;30.20;20.50;;;;;;5070391;28;20952;-72
2021/06/18 08:36:13;;;;;;;19.73;13.65;;;30.10;21.60;;;;;;5068787;28;20407;-74
2021/06/18 08:38:40;;;;;;;26.70;15.00;;;30.30;21.20;;;;;;5069841;28;20410;-72
2021/06/18 08:41:07;;;;;;;19.40;13.70;;;30.30;20.60;;;;;;5069886;28;20392;-73
2021/06/18 08:43:33;;;;;;;24.33;14.50;;;30.10;21.40;;;;;;5069890;28;20449;-74
2021/06/18 08:46:02;;;;;;;16.70;13.55;;;30.00;22.90;;;;;;5070245;28;20879;-73
2021/06/18 08:48:33;;;;;;;19.77;14.23;;;29.90;22.70;;;;;;5069488;28;20544;-73
2021/06/18 08:51:01;;;;;;;39.55;19.70;;;29.90;24.30;;;;;;5069979;28;20826;-73
2021/06/18 08:53:27;;;;;;;71.22;33.80;;;30.20;21.30;;;;;;5069804;28;20396;-74
2021/06/18 08:55:56;;;;;;;27.00;14.87;;;30.50;21.40;;;;;;5068721;28;20411;-75
2021/06/18 08:58:22;;;;;;;23.65;13.82;;;30.90;21.80;;;;;;5070486;28;20745;-73
2021/06/18 09:00:48;;;;;;;20.85;12.00;;;31.00;21.60;;;;;;5068960;28;20396;-75
2021/06/18 09:03:34;;;;;;;79.65;23.27;;;31.30;19.70;;;;;;5069647;28;20461;-75
2021/06/18 09:06:00;;;;;;;81.65;25.33;;;31.70;19.00;;;;;;5070623;28;20405;-73
2021/06/18 09:08:25;;;;;;;40.57;16.93;;;32.00;18.90;;;;;;5068155;28;20392;-73
2021/06/18 09:10:51;;;;;;;17.40;12.10;;;32.40;17.20;;;;;;5070514;28;20427;-71
2021/06/18 09:13:32;;;;;;;23.90;14.45;;;32.40;16.50;;;;;;5069470;28;20415;-76
2021/06/18 09:15:59;;;;;;;14.73;11.53;;;32.40;17.20;;;;;;5070131;28;20490;-75
2021/06/18 09:18:26;;;;;;;15.52;11.57;;;31.90;15.50;;;;;;5068554;28;20394;-74
2021/06/18 09:20:54;;;;;;;19.65;11.70;;;31.40;16.60;;;;;;5070681;28;20471;-71
2021/06/18 09:23:30;;;;;;;18.40;12.30;;;31.10;17.70;;;;;;5068731;28;20917;-74
2021/06/18 09:26:21;;;;;;;50.13;16.47;;;30.80;18.70;;;;;;5069728;28;20426;-74
2021/06/18 09:29:08;;;;;;;85.90;18.30;;;30.60;19.20;;;;;;5063285;28;20390;-76
2021/06/18 09:31:46;;;;;;;20.58;11.50;;;30.50;19.80;;;;;;5070262;28;20411;-75
2021/06/18 09:34:12;;;;;;;30.95;12.35;;;30.60;19.50;;;;;;5072165;28;20756;-72
2021/06/18 09:36:39;;;;;;;13.60;12.02;;;31.10;19.30;;;;;;5073866;28;20413;-72
2021/06/18 09:39:13;;;;;;;36.95;13.88;;;31.20;18.70;;;;;;5073916;28;20391;-74
2021/06/18 09:41:46;;;;;;;25.42;11.95;;;31.00;19.50;;;;;;5089129;28;20438;-72
2021/06/18 09:44:17;;;;;;;22.52;12.07;;;31.00;19.40;;;;;;5073506;28;20436;-73
2021/06/18 09:47:05;;;;;;;16.20;10.77;;;31.20;18.70;;;;;;5074025;28;20875;-73
2021/06/18 09:49:30;;;;;;;20.60;10.82;;;31.50;18.60;;;;;;5070811;28;20395;-73
2021/06/18 09:52:06;;;;;;;17.80;11.02;;;31.50;18.10;;;;;;5073731;28;20441;-73
2021/06/18 09:54:38;;;;;;;19.95;10.50;;;31.70;18.50;;;;;;5073279;28;20379;-72
2021/06/18 09:57:16;;;;;;;18.45;10.40;;;32.00;17.40;;;;;;5073630;28;20380;-74
2021/06/18 09:59:49;;;;;;;19.87;10.90;;;32.10;17.20;;;;;;5073289;28;20744;-74
2021/06/18 10:02:15;;;;;;;20.92;11.57;;;32.10;17.00;;;;;;5073440;28;20436;-72
2021/06/18 10:04:41;;;;;;;19.38;11.38;;;32.50;15.90;;;;;;5073081;28;20471;-73
2021/06/18 10:07:08;;;;;;;15.60;11.45;;;32.80;15.10;;;;;;5072731;28;20423;-72
2021/06/18 10:09:34;;;;;;;16.92;11.10;;;32.90;14.50;;;;;;5071621;28;20399;-74
2021/06/18 10:12:00;;;;;;;19.10;10.50;;;32.70;14.90;;;;;;5072566;28;20399;-71
2021/06/18 10:14:26;;;;;;;18.27;10.50;;;32.80;14.70;;;;;;5073326;28;20387;-74
2021/06/18 10:16:53;;;;;;;17.02;10.23;;;32.90;14.50;;;;;;5073038;28;20391;-73
2021/06/18 10:19:19;;;;;;;13.10;9.80;;;33.10;14.50;;;;;;5073422;28;20414;-74
2021/06/18 10:22:05;;;;;;;16.15;10.25;;;33.30;13.60;;;;;;5073048;28;20908;-72
2021/06/18 10:24:49;;;;;;;18.65;9.80;;;33.40;12.80;;;;;;5072220;28;20454;-72
2021/06/18 10:27:18;;;;;;;13.68;9.40;;;33.30;13.20;;;;;;5072377;28;20445;-73
2021/06/18 10:29:44;;;;;;;16.45;10.25;;;32.90;13.40;;;;;;5072846;28;20388;-71
2021/06/18 10:32:33;;;;;;;20.17;10.27;;;32.70;13.50;;;;;;5073443;28;20408;-72
2021/06/18 10:35:00;;;;;;;17.15;9.55;;;32.60;14.30;;;;;;5070462;28;20491;-71
2021/06/18 10:37:29;;;;;;;15.82;9.35;;;32.70;13.00;;;;;;5072218;28;20478;-72
2021/06/18 10:39:57;;;;;;;14.70;8.60;;;32.70;11.90;;;;;;5072431;28;20906;-71
2021/06/18 10:42:23;;;;;;;15.77;8.73;;;33.20;11.00;;;;;;5072825;28;20479;-71
2021/06/18 10:44:51;;;;;;;16.58;8.00;;;33.30;9.80;;;;;;5071116;28;20495;-71
2021/06/18 10:47:33;;;;;;;18.63;7.75;;;33.40;9.50;;;;;;5072510;28;20778;-72
2021/06/18 10:49:59;;;;;;;15.77;7.88;;;33.40;8.10;;;;;;5071855;28;20452;-72
2021/06/18 10:52:35;;;;;;;8.93;8.00;;;33.40;8.80;;;;;;5071723;28;20900;-72
2021/06/18 10:55:01;;;;;;;14.68;7.28;;;33.20;9.30;;;;;;5072672;28;20422;-70
2021/06/18 10:57:28;;;;;;;16.30;8.95;;;33.20;9.10;;;;;;5073536;28;20387;-73
2021/06/18 11:00:22;;;;;;;15.05;7.90;;;33.30;8.90;;;;;;5070751;28;20408;-75
2021/06/18 11:02:48;;;;;;;15.02;7.70;;;33.10;9.30;;;;;;5080947;28;20426;-71
2021/06/18 11:05:25;;;;;;;11.55;7.47;;;33.20;9.30;;;;;;5081253;28;20882;-72
2021/06/18 11:08:15;;;;;;;13.37;6.90;;;33.30;8.60;;;;;;5071743;28;20491;-71
2021/06/18 11:10:40;;;;;;;15.55;9.15;;;33.30;8.10;;;;;;5062022;28;20403;-72
2021/06/18 11:13:15;;;;;;;8.60;5.78;;;33.30;7.80;;;;;;5071528;28;20396;-71
2021/06/18 11:15:43;;;;;;;14.93;6.10;;;33.10;6.60;;;;;;5067799;28;20384;-71
2021/06/18 11:18:13;;;;;;;15.85;5.97;;;33.10;6.10;;;;;;5060413;28;20399;-72
2021/06/18 11:20:42;;;;;;;10.63;5.45;;;33.20;5.60;;;;;;5071276;28;20411;-71
2021/06/18 11:23:16;;;;;;;13.38;5.75;;;33.60;5.10;;;;;;5071448;28;20393;-70
2021/06/18 11:25:51;;;;;;;12.43;5.50;;;33.80;5.20;;;;;;5071780;28;20411;-71
2021/06/18 11:28:19;;;;;;;12.18;6.90;;;33.80;5.50;;;;;;5051825;28;20409;-72
2021/06/18 11:31:13;;;;;;;14.75;6.32;;;33.80;6.80;;;;;;5052100;28;20473;-70
2021/06/18 11:33:50;;;;;;;11.02;6.30;;;33.80;5.10;;;;;;5066105;28;20506;-72
2021/06/18 11:36:22;;;;;;;11.73;5.60;;;33.70;5.70;;;;;;5068059;28;20444;-70
2021/06/18 11:39:10;;;;;;;11.80;4.65;;;33.80;4.10;;;;;;5071751;28;20387;-69
2021/06/18 11:41:42;;;;;;;11.65;4.90;;;33.80;3.20;;;;;;5071767;28;20737;-70
2021/06/18 11:44:10;;;;;;;14.25;5.22;;;33.90;3.40;;;;;;5071111;28;20425;-67
2021/06/18 11:46:37;;;;;;;7.95;5.10;;;34.10;3.00;;;;;;5071293;28;20403;-70
2021/06/18 11:49:23;;;;;;;11.25;5.00;;;33.80;2.10;;;;;;5072768;28;20395;-69
2021/06/18 11:51:51;;;;;;;8.90;4.53;;;33.90;2.40;;;;;;5068462;28;20771;-71
2021/06/18 11:54:34;;;;;;;8.50;5.00;;;33.90;1.50;;;;;;5071613;28;20400;-69
2021/06/18 11:57:05;;;;;;;10.32;5.32;;;33.70;2.00;;;;;;5070281;28;21003;-70
2021/06/18 11:59:31;;;;;;;12.07;5.17;;;33.90;2.10;;;;;;5071230;28;20763;-72
2021/06/18 12:01:57;;;;;;;9.70;4.80;;;33.90;1.30;;;;;;5071802;28;20422;-72
2021/06/18 12:04:23;;;;;;;10.10;4.40;;;34.10;1.90;;;;;;5087124;28;20395;-71
2021/06/18 12:06:48;;;;;;;10.30;4.60;;;34.00;1.20;;;;;;5072594;28;20424;-72
2021/06/18 12:09:21;;;;;;;7.10;3.80;;;34.00;1.40;;;;;;5071665;28;20439;-73
2021/06/18 12:11:57;;;;;;;11.43;4.40;;;34.00;1.00;;;;;;5070374;28;20403;-73
2021/06/18 12:14:22;;;;;;;8.05;4.53;;;34.10;1.10;;;;;;5070829;28;20423;-73
2021/06/18 12:16:50;;;;;;;7.50;4.60;;;34.10;1.00;;;;;;5071063;28;20426;-73
2021/06/18 12:19:23;;;;;;;8.75;4.30;;;34.10;1.00;;;;;;5071689;28;20392;-72
2021/06/18 12:22:19;;;;;;;7.35;4.20;;;34.30;1.40;;;;;;5071057;28;20791;-72
2021/06/18 12:24:49;;;;;;;13.63;4.75;;;34.40;1.00;;;;;;5060012;28;20408;-72
2021/06/18 12:27:17;;;;;;;9.65;4.68;;;34.40;1.10;;;;;;5071668;28;20387;-71
2021/06/18 12:29:55;;;;;;;9.57;4.78;;;34.60;1.20;;;;;;5069903;28;20395;-73
2021/06/18 12:32:32;;;;;;;12.98;4.70;;;34.70;1.20;;;;;;5070516;28;20404;-72
2021/06/18 12:35:00;;;;;;;6.47;4.10;;;34.70;1.00;;;;;;5071054;28;20391;-73
2021/06/18 12:37:28;;;;;;;8.23;4.27;;;34.80;1.00;;;;;;5071502;28;20387;-73
2021/06/18 12:39:59;;;;;;;9.25;4.85;;;34.80;1.00;;;;;;5071175;28;20396;-72
2021/06/18 12:42:25;;;;;;;7.43;4.97;;;34.70;1.00;;;;;;5070559;28;20398;-71
2021/06/18 12:45:19;;;;;;;9.02;4.50;;;34.60;1.00;;;;;;5070063;28;20391;-70
2021/06/18 12:47:47;;;;;;;10.70;4.90;;;34.70;1.00;;;;;;5070389;28;20491;-72
2021/06/18 12:50:25;;;;;;;8.73;4.07;;;34.70;1.00;;;;;;5070311;28;20387;-71